Time;durP1;ratioP1;P1;durP2;ratioP2;P2;SDS_P1;SDS_P2;PMS_P1;PMS_P2;Temp;Humidity;BMP_temperature;BMP_pressure;BME280_temperature;BME280_humidity;BME280_pressure;Samples;Min_cycle;Max_cycle;Signal;HPM_P1;HPM_P2
2024/01/02 00:01:44;;;;;;;0.00;0.00;;;13.90;99.90;;;;;;10436618;28;20059;-76
2024/01/02 00:06:49;;;;;;;0.10;0.10;;;13.90;99.90;;;;;;10431002;28;20045;-76
2024/01/02 00:11:52;;;;;;;0.10;0.10;;;13.60;99.90;;;;;;10430358;28;20166;-76
2024/01/02 00:16:56;;;;;;;;;;;13.60;99.90;;;;;;10414292;28;20068;-77
2024/01/02 00:21:58;;;;;;;;;;;13.70;99.90;;;;;;10442294;28;20744;-76
2024/01/02 00:27:02;;;;;;;0.10;0.10;;;13.90;99.90;;;;;;10435712;28;19924;-76
2024/01/02 00:32:07;;;;;;;0.10;0.10;;;13.60;99.90;;;;;;10439137;28;20114;-76
2024/01/02 00:37:09;;;;;;;0.20;0.20;;;13.40;99.90;;;;;;10438513;28;20053;-76
2024/01/02 00:42:11;;;;;;;0.53;0.53;;;13.60;99.90;;;;;;10443096;28;20045;-76
2024/01/02 00:47:15;;;;;;;4.15;1.20;;;13.50;99.90;;;;;;10432490;28;20041;-77
2024/01/02 00:52:18;;;;;;;0.22;0.20;;;13.70;99.90;;;;;;10438139;28;20107;-77
2024/01/02 00:57:20;;;;;;;0.28;0.28;;;13.80;99.90;;;;;;10444875;28;20496;-77
2024/01/02 01:02:24;;;;;;;0.52;0.52;;;13.70;99.90;;;;;;10443351;28;20088;-75
2024/01/02 01:07:28;;;;;;;0.10;0.10;;;13.70;99.90;;;;;;10458601;28;20044;-76
2024/01/02 01:12:33;;;;;;;0.10;0.10;;;13.50;99.90;;;;;;10464356;28;20475;-77
2024/01/02 01:17:37;;;;;;;0.10;0.10;;;13.60;99.90;;;;;;10454374;28;20041;-76
2024/01/02 01:22:39;;;;;;;0.10;0.10;;;13.90;99.90;;;;;;10464057;28;20039;-77
2024/01/02 01:27:42;;;;;;;0.10;0.10;;;13.60;99.90;;;;;;10448887;28;20045;-76
2024/01/02 01:32:46;;;;;;;0.10;0.10;;;13.80;99.90;;;;;;10467601;28;20064;-78
2024/01/02 01:37:51;;;;;;;0.20;0.20;;;13.50;99.90;;;;;;10444972;28;20041;-77
2024/01/02 01:42:53;;;;;;;0.47;0.47;;;13.50;99.90;;;;;;10442102;28;20228;-77
2024/01/02 01:47:58;;;;;;;0.00;0.00;;;13.70;99.90;;;;;;10445440;28;20477;-77
2024/01/02 01:53:01;;;;;;;0.60;0.50;;;13.60;99.90;;;;;;10453894;28;20048;-77
2024/01/02 01:58:05;;;;;;;0.00;0.00;;;13.80;99.90;;;;;;10442103;28;20045;-76
2024/01/02 02:03:10;;;;;;;0.75;0.75;;;13.90;99.90;;;;;;10423219;28;20657;-77
2024/01/02 02:08:12;;;;;;;0.10;0.10;;;13.90;99.90;;;;;;10425219;28;20630;-76
2024/01/02 02:13:14;;;;;;;0.10;0.10;;;13.70;99.90;;;;;;10397688;28;20134;-76
2024/01/02 02:18:19;;;;;;;6.82;2.22;;;13.80;99.90;;;;;;10425721;28;20045;-76
2024/01/02 02:23:23;;;;;;;0.10;0.10;;;14.20;99.90;;;;;;10426964;28;20447;-76
2024/01/02 02:28:26;;;;;;;0.10;0.10;;;13.90;99.90;;;;;;10434022;28;20053;-76
2024/01/02 02:33:29;;;;;;;0.10;0.10;;;14.00;99.90;;;;;;10431432;28;20057;-76
2024/01/02 02:38:33;;;;;;;0.10;0.10;;;13.70;99.90;;;;;;10435013;28;20411;-75
2024/01/02 02:43:35;;;;;;;0.10;0.10;;;13.90;99.90;;;;;;10430343;28;20049;-75
2024/01/02 02:48:37;;;;;;;0.10;0.10;;;13.50;99.90;;;;;;10427167;28;20057;-74
2024/01/02 02:53:41;;;;;;;0.10;0.10;;;13.70;99.90;;;;;;10423761;28;20069;-75
2024/01/02 02:58:43;;;;;;;0.10;0.10;;;13.80;99.90;;;;;;10423531;28;20045;-74
2024/01/02 03:03:48;;;;;;;0.10;0.10;;;14.10;99.90;;;;;;10423046;28;20055;-74
2024/01/02 03:08:52;;;;;;;0.17;0.17;;;13.70;99.90;;;;;;10419702;28;21977;-75
2024/01/02 03:13:54;;;;;;;0.10;0.10;;;13.80;99.90;;;;;;10422427;28;20052;-74
2024/01/02 03:18:56;;;;;;;0.10;0.10;;;13.80;99.90;;;;;;10419780;28;20137;-75
2024/01/02 03:24:02;;;;;;;0.00;0.00;;;13.40;99.90;;;;;;10421499;28;20578;-74
2024/01/02 03:29:04;;;;;;;0.10;0.10;;;12.60;99.90;;;;;;10421452;28;20045;-74
2024/01/02 03:34:07;;;;;;;0.10;0.10;;;11.00;99.90;;;;;;10423097;28;20052;-77
2024/01/02 03:39:10;;;;;;;0.10;0.10;;;10.00;99.90;;;;;;10424216;28;20052;-74
2024/01/02 03:44:12;;;;;;;0.10;0.10;;;9.90;99.90;;;;;;10420654;28;20060;-75
2024/01/02 03:49:15;;;;;;;0.20;0.20;;;9.90;99.90;;;;;;10423386;28;20617;-75
2024/01/02 03:54:18;;;;;;;0.10;0.10;;;10.10;99.90;;;;;;10424429;28;20049;-76
2024/01/02 04:15:33;;;;;;;0.30;0.30;;;10.00;99.90;;;;;;10567964;27;20130;-72
2024/01/02 04:20:36;;;;;;;0.10;0.10;;;10.10;99.90;;;;;;10577459;27;20426;-74
2024/01/02 04:25:38;;;;;;;0.20;0.20;;;10.10;99.90;;;;;;10569083;27;20429;-74
2024/01/02 04:30:41;;;;;;;0.20;0.20;;;10.20;99.90;;;;;;10580256;27;20557;-75
2024/01/02 04:35:43;;;;;;;0.20;0.20;;;10.30;99.90;;;;;;10577884;27;20044;-74
2024/01/02 04:40:46;;;;;;;27.25;4.05;;;10.40;99.90;;;;;;10570895;27;20048;-73
2024/01/02 04:45:49;;;;;;;30.80;4.77;;;10.70;99.90;;;;;;10569693;27;20067;-74
2024/01/02 04:50:51;;;;;;;34.22;5.07;;;10.60;99.90;;;;;;10585629;27;20043;-75
2024/01/02 04:55:54;;;;;;;69.25;7.70;;;10.80;99.90;;;;;;10575749;27;20051;-75
2024/01/02 05:00:57;;;;;;;59.83;7.47;;;10.90;99.90;;;;;;10581973;27;20044;-74
2024/01/02 05:05:59;;;;;;;76.75;9.50;;;10.90;99.90;;;;;;10581500;27;20047;-74
2024/01/02 05:11:02;;;;;;;71.22;9.05;;;11.00;99.90;;;;;;10592092;27;20055;-76
2024/01/02 05:16:08;;;;;;;68.47;6.33;;;11.10;99.90;;;;;;10594573;27;20412;-74
2024/01/02 05:21:10;;;;;;;62.65;7.45;;;11.10;99.90;;;;;;10575871;27;20134;-74
2024/01/02 05:26:15;;;;;;;67.13;8.65;;;11.20;99.90;;;;;;10556006;27;20044;-77
2024/01/02 05:31:19;;;;;;;46.97;5.32;;;11.20;99.90;;;;;;10550623;27;20059;-74
2024/01/02 05:36:21;;;;;;;46.28;7.35;;;11.30;99.90;;;;;;10529789;27;20051;-76
2024/01/02 05:41:23;;;;;;;60.55;9.30;;;11.20;99.90;;;;;;10541232;28;20051;-79
2024/01/02 05:46:27;;;;;;;48.73;8.00;;;11.30;99.90;;;;;;10544259;27;20060;-76
2024/01/02 05:51:29;;;;;;;47.53;8.00;;;11.20;99.90;;;;;;10540105;28;20122;-75
2024/01/02 05:56:32;;;;;;;71.20;10.45;;;11.10;99.90;;;;;;10525220;28;20055;-76
2024/01/02 06:01:40;;;;;;;72.13;8.93;;;11.10;99.90;;;;;;10525003;28;20435;-75
2024/01/02 06:06:42;;;;;;;55.40;7.45;;;11.10;99.90;;;;;;10538100;28;20144;-76
2024/01/02 06:11:44;;;;;;;66.90;9.93;;;11.20;99.90;;;;;;10540243;27;20111;-75
2024/01/02 06:16:48;;;;;;;86.07;10.37;;;11.10;99.90;;;;;;10521005;27;20121;-75
2024/01/02 06:21:50;;;;;;;69.70;11.00;;;11.00;99.90;;;;;;10541998;28;20462;-75
2024/01/02 06:26:52;;;;;;;73.07;12.70;;;11.10;99.90;;;;;;10535128;28;20052;-74
2024/01/02 06:31:56;;;;;;;76.73;10.77;;;11.10;99.90;;;;;;10520803;28;20093;-76
2024/01/02 06:36:58;;;;;;;63.25;11.15;;;11.00;99.90;;;;;;10539412;27;20044;-73
2024/01/02 06:42:01;;;;;;;94.67;13.97;;;11.00;99.90;;;;;;10523961;28;20718;-75
2024/01/02 06:47:04;;;;;;;105.50;12.48;;;11.00;99.90;;;;;;10530652;27;20095;-75
2024/01/02 06:52:07;;;;;;;84.97;12.57;;;11.10;99.90;;;;;;10535113;27;20863;-75
2024/01/02 06:57:09;;;;;;;98.87;12.87;;;11.10;99.90;;;;;;10535856;27;20047;-75
2024/01/02 07:02:13;;;;;;;86.57;10.20;;;11.00;99.90;;;;;;10532735;28;20634;-75
2024/01/02 07:07:15;;;;;;;137.05;16.52;;;10.90;99.90;;;;;;10533638;27;20917;-74
2024/01/02 07:12:17;;;;;;;126.93;14.32;;;10.90;99.90;;;;;;10527229;27;20051;-74
2024/01/02 07:17:21;;;;;;;94.78;13.07;;;10.80;99.90;;;;;;10531618;27;20047;-73
2024/01/02 07:22:23;;;;;;;93.00;14.32;;;10.80;99.90;;;;;;10532562;28;20073;-75
2024/01/02 07:27:25;;;;;;;81.13;9.73;;;10.80;99.90;;;;;;10532391;28;20112;-75
2024/01/02 07:32:29;;;;;;;77.70;10.25;;;10.80;99.90;;;;;;10541521;27;20047;-75
2024/01/02 07:37:32;;;;;;;104.53;12.98;;;10.90;99.90;;;;;;10543963;27;20051;-75
2024/01/02 07:42:34;;;;;;;75.05;11.73;;;10.90;99.90;;;;;;10536343;28;20067;-76
2024/01/02 07:47:38;;;;;;;61.53;9.80;;;10.80;99.90;;;;;;10534720;28;20047;-75
2024/01/02 07:52:40;;;;;;;76.90;12.18;;;10.90;99.90;;;;;;10517843;27;20460;-73
2024/01/02 07:57:42;;;;;;;92.97;11.87;;;11.00;99.90;;;;;;10515676;28;20750;-73
2024/01/02 08:02:46;;;;;;;72.00;9.18;;;11.00;99.90;;;;;;10543276;28;20055;-74
2024/01/02 08:07:48;;;;;;;105.38;16.25;;;10.90;99.90;;;;;;10527902;28;20059;-73
2024/01/02 08:12:50;;;;;;;80.18;12.38;;;10.90;99.90;;;;;;10526880;28;20526;-75
2024/01/02 08:17:54;;;;;;;106.07;11.77;;;10.80;99.90;;;;;;10529070;28;20062;-75
2024/01/02 08:22:56;;;;;;;85.07;13.25;;;10.90;99.90;;;;;;10535703;28;20050;-75
2024/01/02 08:27:58;;;;;;;73.90;11.00;;;10.90;99.90;;;;;;10537021;28;20051;-74
2024/01/02 08:33:02;;;;;;;100.03;13.87;;;11.00;99.90;;;;;;10521194;28;20195;-75
2024/01/02 08:38:04;;;;;;;97.07;12.80;;;11.00;99.90;;;;;;10537289;28;20463;-74
2024/01/02 08:43:06;;;;;;;95.77;11.63;;;11.00;99.90;;;;;;10534382;28;20044;-75
2024/01/02 08:48:11;;;;;;;86.63;12.18;;;11.00;99.90;;;;;;10549801;28;20198;-75
2024/01/02 08:53:14;;;;;;;97.38;14.05;;;11.10;99.90;;;;;;10544872;28;20386;-74
2024/01/02 08:58:16;;;;;;;79.10;12.52;;;11.10;99.90;;;;;;10545812;28;20059;-74
2024/01/02 09:03:20;;;;;;;84.50;9.63;;;11.30;99.90;;;;;;10559190;28;20044;-75
2024/01/02 09:08:22;;;;;;;72.85;9.38;;;11.30;99.90;;;;;;10548928;28;20739;-75
2024/01/02 09:13:26;;;;;;;53.47;8.20;;;11.30;99.90;;;;;;10554556;27;20495;-73
2024/01/02 09:18:30;;;;;;;59.90;8.85;;;11.40;99.90;;;;;;10545799;28;20995;-74
2024/01/02 09:23:34;;;;;;;49.75;8.55;;;11.50;99.90;;;;;;10542702;27;20054;-74
2024/01/02 09:28:37;;;;;;;39.30;6.85;;;11.50;99.90;;;;;;10533193;28;20058;-74
2024/01/02 09:33:42;;;;;;;31.00;5.80;;;11.60;99.90;;;;;;10547147;27;20055;-74
2024/01/02 09:38:45;;;;;;;48.97;9.00;;;11.70;99.90;;;;;;10538099;28;20407;-75
2024/01/02 09:43:58;;;;;;;45.47;6.72;;;11.80;99.90;;;;;;10546908;27;20055;-73
2024/01/02 09:49:17;;;;;;;28.73;5.30;;;11.80;99.90;;;;;;10537959;28;20052;-73
2024/01/02 09:54:36;;;;;;;25.70;3.75;;;11.80;99.90;;;;;;10541036;28;20039;-75
2024/01/02 09:59:50;;;;;;;28.23;6.28;;;11.80;99.90;;;;;;10521968;27;20055;-74
2024/01/02 10:05:17;;;;;;;27.33;5.22;;;11.80;99.90;;;;;;10550030;27;20055;-73
2024/01/02 10:10:33;;;;;;;23.58;3.33;;;11.70;99.90;;;;;;10543413;27;20052;-74
2024/01/02 10:15:44;;;;;;;25.55;4.18;;;11.80;99.90;;;;;;10537144;27;20051;-74
2024/01/02 10:21:04;;;;;;;24.15;4.68;;;11.70;99.90;;;;;;10555840;27;20060;-74
2024/01/02 10:26:10;;;;;;;34.65;5.15;;;11.60;99.90;;;;;;10556518;27;20086;-74
2024/01/02 10:31:25;;;;;;;28.50;4.03;;;11.60;99.90;;;;;;10553354;27;20055;-74
2024/01/02 10:36:34;;;;;;;20.95;3.83;;;11.60;99.90;;;;;;10553662;27;20054;-75
2024/01/02 10:41:52;;;;;;;14.45;3.17;;;11.60;99.90;;;;;;10538899;28;20061;-75
2024/01/02 10:46:59;;;;;;;18.67;5.05;;;11.60;99.90;;;;;;10550666;27;20055;-73
2024/01/02 10:52:14;;;;;;;13.30;2.10;;;11.70;99.90;;;;;;10519544;28;20052;-72
2024/01/02 10:57:24;;;;;;;9.75;2.42;;;11.70;99.90;;;;;;10533197;27;20052;-73
2024/01/02 11:08:05;;;;;;;11.60;3.00;;;11.70;99.90;;;;;;10528345;28;20055;-73
2024/01/02 11:13:09;;;;;;;7.95;3.33;;;11.90;99.90;;;;;;10509421;27;20063;-73
2024/01/02 11:18:14;;;;;;;0.15;0.15;;;11.90;99.90;;;;;;10533205;27;20241;-73
2024/01/02 11:23:34;;;;;;;0.10;0.10;;;11.90;99.90;;;;;;10511746;28;21323;-73
2024/01/02 11:28:52;;;;;;;0.10;0.10;;;11.80;99.90;;;;;;10526222;27;20079;-73
2024/01/02 11:34:39;;;;;;;0.10;0.10;;;11.90;99.90;;;;;;10527919;28;20039;-73
2024/01/02 11:40:01;;;;;;;0.35;0.35;;;12.10;99.90;;;;;;10442734;28;20307;-73
2024/01/02 11:45:09;;;;;;;0.10;0.10;;;11.90;99.90;;;;;;10524411;28;20805;-71
2024/01/02 11:50:15;;;;;;;0.50;0.50;;;12.00;99.90;;;;;;10528729;27;20051;-74
2024/01/02 11:55:24;;;;;;;0.10;0.10;;;12.00;99.90;;;;;;10528449;27;20044;-72
2024/01/02 12:00:38;;;;;;;0.20;0.20;;;12.30;99.90;;;;;;10530369;27;20148;-72
2024/01/02 12:05:43;;;;;;;0.10;0.10;;;12.20;99.90;;;;;;10530313;28;20043;-73
2024/01/02 12:10:50;;;;;;;0.20;0.20;;;12.40;99.90;;;;;;10527424;28;20046;-74
2024/01/02 12:15:54;;;;;;;0.17;0.17;;;13.10;99.90;;;;;;10524317;28;20578;-73
2024/01/02 12:20:59;;;;;;;0.17;0.17;;;13.70;99.90;;;;;;10527562;28;20047;-70
2024/01/02 12:26:04;;;;;;;0.10;0.10;;;13.80;99.90;;;;;;10518845;28;20106;-70
2024/01/02 12:31:16;;;;;;;0.20;0.20;;;14.10;99.90;;;;;;10524622;28;20046;-68
2024/01/02 12:36:54;;;;;;;0.10;0.10;;;14.20;99.90;;;;;;10514372;27;20048;-70
2024/01/02 12:42:01;;;;;;;0.10;0.10;;;14.40;99.90;;;;;;10531790;27;20051;-71
2024/01/02 12:47:09;;;;;;;0.20;0.20;;;14.30;99.90;;;;;;10535917;27;20044;-70
2024/01/02 12:52:20;;;;;;;1.17;1.00;;;14.40;99.90;;;;;;10535363;27;20150;-70
2024/01/02 12:57:35;;;;;;;0.10;0.10;;;14.00;99.90;;;;;;10538610;28;20047;-71
2024/01/02 13:02:49;;;;;;;0.20;0.20;;;13.50;99.90;;;;;;10537119;27;20054;-72
2024/01/02 13:07:54;;;;;;;0.10;0.10;;;14.30;99.90;;;;;;10534080;27;20099;-70
2024/01/02 13:13:05;;;;;;;0.30;0.30;;;14.40;99.90;;;;;;10536822;27;20074;-71
2024/01/02 13:18:10;;;;;;;0.10;0.10;;;14.30;99.90;;;;;;10532771;27;20049;-72
2024/01/02 13:23:12;;;;;;;0.22;0.22;;;14.00;99.90;;;;;;10528875;28;20135;-72
2024/01/02 13:28:20;;;;;;;0.10;0.10;;;13.50;99.90;;;;;;10530656;28;20829;-71
2024/01/02 13:33:23;;;;;;;0.10;0.10;;;13.20;99.90;;;;;;10532093;27;20415;-71
2024/01/02 13:38:44;;;;;;;0.85;0.45;;;13.40;99.90;;;;;;10522924;28;20407;-71
2024/01/02 13:43:50;;;;;;;0.17;0.17;;;13.40;99.90;;;;;;10528611;28;20044;-72
2024/01/02 13:48:59;;;;;;;0.10;0.10;;;13.30;99.90;;;;;;10540301;28;20055;-72
2024/01/02 13:54:07;;;;;;;0.93;0.85;;;13.40;99.90;;;;;;10544981;28;21158;-72
2024/01/02 13:59:12;;;;;;;0.10;0.10;;;13.30;99.90;;;;;;10542258;28;20044;-73
2024/01/02 14:04:22;;;;;;;0.20;0.20;;;13.40;99.90;;;;;;10530420;28;20048;-73
2024/01/02 14:09:24;;;;;;;0.10;0.10;;;13.60;99.90;;;;;;10530984;28;20088;-73
2024/01/02 14:14:39;;;;;;;0.10;0.10;;;13.50;99.90;;;;;;10516552;27;20841;-71
2024/01/02 14:19:45;;;;;;;0.30;0.30;;;13.50;99.90;;;;;;10528643;28;20140;-71
2024/01/02 14:25:06;;;;;;;0.63;0.63;;;13.60;99.90;;;;;;10529227;27;20396;-71
2024/01/02 14:30:17;;;;;;;1.65;1.55;;;13.80;99.90;;;;;;10526499;27;20125;-71
2024/01/02 14:35:24;;;;;;;7.53;3.22;;;14.20;99.90;;;;;;10532449;28;20136;-71
2024/01/02 14:40:37;;;;;;;0.10;0.10;;;14.40;99.90;;;;;;10528192;28;20044;-72
2024/01/02 14:45:50;;;;;;;0.10;0.10;;;14.60;99.90;;;;;;10524855;27;20051;-71
2024/01/02 14:51:10;;;;;;;0.20;0.20;;;14.90;99.90;;;;;;10506431;28;20099;-74
2024/01/02 14:56:24;;;;;;;0.35;0.35;;;15.20;99.90;;;;;;10525166;27;20705;-71
2024/01/02 15:01:44;;;;;;;0.10;0.10;;;14.80;99.90;;;;;;10524688;27;20525;-74
2024/01/02 15:06:49;;;;;;;3.40;0.82;;;15.40;99.90;;;;;;10509927;28;20097;-70
2024/01/02 15:12:02;;;;;;;0.10;0.10;;;15.50;99.90;;;;;;10527407;28;20097;-69
2024/01/02 15:17:34;;;;;;;0.30;0.30;;;15.80;99.90;;;;;;10524607;27;20055;-69
2024/01/02 15:22:56;;;;;;;0.10;0.10;;;15.90;99.90;;;;;;10518187;28;20062;-69
2024/01/02 15:28:05;;;;;;;0.10;0.10;;;15.80;99.90;;;;;;10523442;27;20796;-70
2024/01/02 15:33:17;;;;;;;0.10;0.10;;;15.70;99.90;;;;;;10522151;28;20524;-74
2024/01/02 15:38:24;;;;;;;0.00;0.00;;;16.00;99.90;;;;;;10518217;27;20197;-72
2024/01/02 15:43:35;;;;;;;0.10;0.10;;;15.20;99.90;;;;;;10526979;27;20094;-72
2024/01/02 15:48:46;;;;;;;0.10;0.10;;;15.40;99.90;;;;;;10519341;28;20121;-72
2024/01/02 15:53:54;;;;;;;0.10;0.10;;;14.50;99.90;;;;;;10521769;28;20284;-75
2024/01/02 15:59:13;;;;;;;0.00;0.00;;;13.70;99.90;;;;;;10526576;27;20062;-71
2024/01/02 16:04:33;;;;;;;0.10;0.10;;;14.70;99.90;;;;;;10507635;28;20719;-70
2024/01/02 16:09:56;;;;;;;0.10;0.10;;;14.10;99.90;;;;;;10521391;28;20071;-74
2024/01/02 16:15:44;;;;;;;0.00;0.00;;;14.20;99.90;;;;;;10512347;28;20075;-71
2024/01/02 16:21:21;;;;;;;0.15;0.15;;;14.70;99.90;;;;;;10505521;28;20051;-72
2024/01/02 16:26:39;;;;;;;0.10;0.10;;;14.30;99.90;;;;;;10473760;28;20051;-72
2024/01/02 16:31:52;;;;;;;0.10;0.10;;;14.50;99.90;;;;;;10513702;28;20054;-72
2024/01/02 16:37:06;;;;;;;;;;;13.80;99.90;;;;;;10521160;28;20135;-72
2024/01/02 16:42:09;;;;;;;0.17;0.17;;;13.50;99.90;;;;;;10531198;28;20229;-71
2024/01/02 16:47:11;;;;;;;;;;;12.40;99.90;;;;;;10532692;28;20690;-71
2024/01/02 16:52:31;;;;;;;0.10;0.10;;;12.60;99.90;;;;;;10535139;28;20069;-71
2024/01/02 16:57:34;;;;;;;9.13;1.52;;;12.40;99.90;;;;;;10531424;28;20134;-70
2024/01/02 17:02:36;;;;;;;;;;;12.40;99.90;;;;;;10525652;28;20048;-71
2024/01/02 17:07:40;;;;;;;21.17;4.70;;;12.30;99.90;;;;;;10529359;28;19928;-69
2024/01/02 17:12:46;;;;;;;27.60;5.22;;;12.30;99.90;;;;;;10526494;28;20051;-69
2024/01/02 17:17:50;;;;;;;25.60;4.40;;;12.20;99.90;;;;;;10532691;28;20052;-70
2024/01/02 17:22:55;;;;;;;33.83;5.13;;;12.10;99.90;;;;;;10526740;28;20059;-68
2024/01/02 17:28:01;;;;;;;48.20;6.40;;;11.90;99.90;;;;;;10525977;27;20083;-69
2024/01/02 17:33:04;;;;;;;42.65;8.32;;;11.80;99.90;;;;;;10527032;27;20436;-71
2024/01/02 17:38:08;;;;;;;;;;;11.80;99.90;;;;;;10523792;27;20036;-72
2024/01/02 17:43:11;;;;;;;43.15;7.95;;;11.80;99.90;;;;;;10528415;27;19928;-71
2024/01/02 17:48:17;;;;;;;34.83;6.68;;;11.60;99.90;;;;;;10526979;28;20040;-69
2024/01/02 17:53:22;;;;;;;29.85;5.78;;;11.50;99.90;;;;;;10529937;27;20055;-68
2024/01/02 17:58:27;;;;;;;39.17;7.07;;;11.60;99.90;;;;;;10528059;27;20054;-70
2024/01/02 18:03:50;;;;;;;37.67;8.90;;;11.70;99.90;;;;;;10532381;28;20051;-66
2024/01/02 18:09:02;;;;;;;;;;;11.80;99.90;;;;;;10521574;27;20172;-73
2024/01/02 18:14:13;;;;;;;46.70;8.00;;;11.70;99.90;;;;;;10528463;28;20302;-69
2024/01/02 18:19:33;;;;;;;40.63;7.78;;;11.80;99.90;;;;;;10532070;27;20048;-68
2024/01/02 18:24:39;;;;;;;50.88;10.52;;;11.70;99.90;;;;;;10528413;27;20526;-69
2024/01/02 18:29:57;;;;;;;42.75;11.38;;;11.70;99.90;;;;;;10529062;27;20105;-72
2024/01/02 18:35:06;;;;;;;42.42;7.28;;;11.80;99.90;;;;;;10524925;27;20048;-67
2024/01/02 18:40:18;;;;;;;54.97;9.18;;;11.90;99.90;;;;;;10534092;27;20050;-72
2024/01/02 18:45:25;;;;;;;56.15;10.02;;;11.80;99.90;;;;;;10531201;27;20044;-68
2024/01/02 18:50:31;;;;;;;58.75;13.05;;;11.80;99.90;;;;;;10528180;27;20509;-70
2024/01/02 18:55:36;;;;;;;60.70;10.60;;;11.70;99.90;;;;;;10531938;27;20051;-68
2024/01/02 19:01:05;;;;;;;57.63;10.88;;;11.90;99.90;;;;;;10530862;27;20079;-72
2024/01/02 19:06:10;;;;;;;60.88;11.27;;;11.80;99.90;;;;;;10528491;27;20043;-70
2024/01/02 19:11:14;;;;;;;51.15;10.93;;;11.70;99.90;;;;;;10528364;27;20186;-68
2024/01/02 19:16:16;;;;;;;74.30;13.40;;;11.60;99.90;;;;;;10531479;28;20058;-71
2024/01/02 19:21:22;;;;;;;67.53;13.53;;;11.50;99.90;;;;;;10540396;28;20052;-73
2024/01/02 19:26:26;;;;;;;69.85;11.05;;;11.70;99.90;;;;;;10525910;28;20154;-70
2024/01/02 19:31:29;;;;;;;78.00;14.18;;;11.70;99.90;;;;;;10525919;27;20213;-72
2024/01/02 19:36:33;;;;;;;60.03;10.25;;;11.70;99.90;;;;;;10517846;28;20071;-70
2024/01/02 19:41:37;;;;;;;80.32;14.35;;;11.60;99.90;;;;;;10533934;28;20051;-72
2024/01/02 19:46:40;;;;;;;84.82;16.90;;;11.70;99.90;;;;;;10534787;28;20055;-72
2024/01/02 19:51:44;;;;;;;76.15;15.65;;;11.60;99.90;;;;;;10535058;27;20544;-70
2024/01/02 19:56:50;;;;;;;74.47;17.98;;;11.40;99.90;;;;;;10518884;28;20414;-69
2024/01/02 20:01:52;;;;;;;75.60;15.43;;;11.40;99.90;;;;;;10526181;27;20052;-70
2024/01/02 20:06:58;;;;;;;65.10;9.77;;;11.40;99.90;;;;;;10525437;28;20055;-68
2024/01/02 20:12:28;;;;;;;50.80;10.23;;;11.30;99.90;;;;;;10504940;28;20056;-76
2024/01/02 20:17:33;;;;;;;40.60;5.32;;;11.30;99.90;;;;;;10525330;28;20541;-75
2024/01/02 20:22:36;;;;;;;26.98;4.53;;;11.30;99.90;;;;;;10525156;28;20052;-73
2024/01/02 20:27:48;;;;;;;32.17;7.72;;;11.20;99.90;;;;;;10524927;28;20058;-75
2024/01/02 20:33:00;;;;;;;23.42;3.65;;;11.30;99.90;;;;;;10521917;28;20056;-72
2024/01/02 20:38:12;;;;;;;28.38;5.22;;;11.30;99.90;;;;;;10509921;28;20414;-72
2024/01/02 20:43:44;;;;;;;27.67;4.70;;;11.20;99.90;;;;;;10508244;28;20130;-74
2024/01/02 20:48:59;;;;;;;38.25;7.05;;;11.10;99.90;;;;;;10503483;28;20489;-71
2024/01/02 20:54:04;;;;;;;42.90;7.97;;;11.10;99.90;;;;;;10521935;28;20052;-72
2024/01/02 20:59:13;;;;;;;45.33;4.70;;;11.10;99.90;;;;;;10534381;28;20051;-72
2024/01/02 21:04:35;;;;;;;52.30;8.07;;;11.10;99.90;;;;;;10531266;27;20048;-72
2024/01/02 21:09:55;;;;;;;56.33;11.13;;;11.00;99.90;;;;;;10528753;28;20055;-71
2024/01/02 21:15:01;;;;;;;36.63;7.45;;;10.50;99.90;;;;;;10519458;27;20055;-75
2024/01/02 21:20:23;;;;;;;28.77;4.60;;;10.30;99.90;;;;;;10534201;28;20047;-78
2024/01/02 21:25:26;;;;;;;38.20;6.70;;;10.30;99.90;;;;;;10536341;28;20040;-78
2024/01/02 21:30:30;;;;;;;36.83;5.28;;;10.30;99.90;;;;;;10528646;28;20051;-75
2024/01/02 21:35:33;;;;;;;41.38;6.07;;;10.30;99.90;;;;;;10535276;27;20052;-74
2024/01/02 21:41:11;;;;;;;25.45;4.50;;;10.20;99.90;;;;;;10520787;28;20051;-72
2024/01/02 21:46:37;;;;;;;34.63;5.50;;;10.30;99.90;;;;;;10541668;27;20048;-76
2024/01/02 21:51:41;;;;;;;25.92;5.47;;;10.30;99.90;;;;;;10524931;28;20052;-74
2024/01/02 21:56:43;;;;;;;22.80;4.30;;;10.40;99.90;;;;;;10539725;28;20055;-75
2024/01/02 22:01:45;;;;;;;17.67;3.47;;;10.30;99.90;;;;;;10521661;27;20054;-75
2024/01/02 22:06:49;;;;;;;21.70;3.78;;;10.10;99.90;;;;;;10545175;27;20052;-76
2024/01/02 22:11:52;;;;;;;21.17;4.50;;;9.80;99.90;;;;;;10543646;27;20060;-77
2024/01/02 22:17:00;;;;;;;4.10;1.45;;;9.70;99.90;;;;;;10536972;27;20059;-75
2024/01/02 22:22:10;;;;;;;0.20;0.20;;;9.60;99.90;;;;;;10545590;27;20173;-72
2024/01/02 22:27:37;;;;;;;0.35;0.35;;;9.60;99.90;;;;;;10530648;28;20044;-78
2024/01/02 22:32:39;;;;;;;16.80;2.15;;;9.60;99.90;;;;;;10508232;28;20198;-74
2024/01/02 22:37:43;;;;;;;0.40;0.40;;;9.70;99.90;;;;;;10537082;28;20040;-74
2024/01/02 22:42:45;;;;;;;62.72;9.95;;;9.80;99.90;;;;;;10535028;27;20078;-76
2024/01/02 22:47:48;;;;;;;51.83;7.93;;;9.90;99.90;;;;;;10511178;27;20756;-73
2024/01/02 22:52:55;;;;;;;62.25;7.05;;;9.90;99.90;;;;;;10536344;28;20056;-74
2024/01/02 22:57:57;;;;;;;8.25;1.58;;;9.90;99.90;;;;;;10538907;28;20044;-70
2024/01/02 23:03:00;;;;;;;0.93;0.93;;;9.90;99.90;;;;;;10535839;27;20048;-72
2024/01/02 23:08:14;;;;;;;0.82;0.82;;;9.70;99.90;;;;;;10532066;27;20371;-73
2024/01/02 23:13:39;;;;;;;0.75;0.52;;;9.50;99.90;;;;;;10532149;28;20060;-75
2024/01/02 23:19:08;;;;;;;0.28;0.28;;;9.70;99.90;;;;;;10522173;28;20037;-73
2024/01/02 23:24:12;;;;;;;1.20;1.10;;;9.50;99.90;;;;;;10534899;28;20596;-74
2024/01/02 23:29:25;;;;;;;26.52;4.15;;;9.70;99.90;;;;;;10528012;27;20046;-73
2024/01/02 23:34:43;;;;;;;0.10;0.10;;;9.70;99.90;;;;;;10538309;27;20044;-75
2024/01/02 23:39:46;;;;;;;42.38;7.05;;;9.90;99.90;;;;;;10528771;27;20464;-76
2024/01/02 23:44:49;;;;;;;56.35;10.63;;;9.90;99.90;;;;;;10510427;27;20171;-74
2024/01/02 23:49:55;;;;;;;42.17;6.25;;;9.90;99.90;;;;;;10532239;28;20056;-77
2024/01/02 23:54:59;;;;;;;49.58;9.48;;;10.00;99.90;;;;;;10534941;28;20430;-76
